sensor_id;sensor_type;location;lat;lon;timestamp;temperature;humidity
68842;SHT35;55849;48.482;2.332;2023-11-21T05:37:37;13.12;79.21
68842;SHT35;55849;48.482;2.332;2023-11-21T05:40:39;13.13;79.38
68842;SHT35;55849;48.482;2.332;2023-11-21T05:43:40;13.15;78.96
68842;SHT35;55849;48.482;2.332;2023-11-21T05:46:42;13.13;79.02
68842;SHT35;55849;48.482;2.332;2023-11-21T05:49:43;13.16;78.60
68842;SHT35;55849;48.482;2.332;2023-11-21T05:52:47;13.13;78.81
68842;SHT35;55849;48.482;2.332;2023-11-21T05:55:48;13.15;78.76
68842;SHT35;55849;48.482;2.332;2023-11-21T05:58:50;13.13;78.82
68842;SHT35;55849;48.482;2.332;2023-11-21T06:01:52;13.12;78.69
68842;SHT35;55849;48.482;2.332;2023-11-21T06:04:54;13.12;78.65
68842;SHT35;55849;48.482;2.332;2023-11-21T06:07:57;13.12;78.72
68842;SHT35;55849;48.482;2.332;2023-11-21T06:10:58;13.10;78.99
68842;SHT35;55849;48.482;2.332;2023-11-21T06:14:01;13.12;78.68
68842;SHT35;55849;48.482;2.332;2023-11-21T06:17:03;13.12;78.55
68842;SHT35;55849;48.482;2.332;2023-11-21T06:20:06;13.12;78.96
68842;SHT35;55849;48.482;2.332;2023-11-21T06:23:11;13.13;78.45
68842;SHT35;55849;48.482;2.332;2023-11-21T06:26:12;13.12;78.63
68842;SHT35;55849;48.482;2.332;2023-11-21T06:29:14;13.15;78.59
68842;SHT35;55849;48.482;2.332;2023-11-21T06:32:16;13.10;78.60
68842;SHT35;55849;48.482;2.332;2023-11-21T06:35:18;13.10;78.51
68842;SHT35;55849;48.482;2.332;2023-11-21T06:38:21;13.12;78.67
68842;SHT35;55849;48.482;2.332;2023-11-21T06:41:23;13.12;78.86
68842;SHT35;55849;48.482;2.332;2023-11-21T06:44:24;13.12;79.17
68842;SHT35;55849;48.482;2.332;2023-11-21T06:47:26;13.13;79.07
68842;SHT35;55849;48.482;2.332;2023-11-21T06:50:29;13.13;78.99
68842;SHT35;55849;48.482;2.332;2023-11-21T06:53:32;13.12;78.92
68842;SHT35;55849;48.482;2.332;2023-11-21T06:56:34;13.13;78.99
68842;SHT35;55849;48.482;2.332;2023-11-21T06:59:36;13.12;78.88
68842;SHT35;55849;48.482;2.332;2023-11-21T07:02:37;13.16;79.07
68842;SHT35;55849;48.482;2.332;2023-11-21T07:05:39;13.18;79.12
68842;SHT35;55849;48.482;2.332;2023-11-21T07:08:42;13.16;79.16
68842;SHT35;55849;48.482;2.332;2023-11-21T07:11:44;13.18;79.21
68842;SHT35;55849;48.482;2.332;2023-11-21T07:14:45;13.16;79.29
68842;SHT35;55849;48.482;2.332;2023-11-21T07:17:47;13.18;79.29
68842;SHT35;55849;48.482;2.332;2023-11-21T07:20:48;13.18;79.31
68842;SHT35;55849;48.482;2.332;2023-11-21T07:23:51;13.22;79.53
68842;SHT35;55849;48.482;2.332;2023-11-21T07:26:53;13.19;79.58
68842;SHT35;55849;48.482;2.332;2023-11-21T07:29:56;13.22;79.39
68842;SHT35;55849;48.482;2.332;2023-11-21T07:32:58;13.22;79.35
68842;SHT35;55849;48.482;2.332;2023-11-21T07:35:59;13.23;79.56
68842;SHT35;55849;48.482;2.332;2023-11-21T07:39:03;13.24;79.62
68842;SHT35;55849;48.482;2.332;2023-11-21T07:42:06;13.24;79.47
68842;SHT35;55849;48.482;2.332;2023-11-21T07:45:08;13.24;79.48
68842;SHT35;55849;48.482;2.332;2023-11-21T07:48:10;13.27;79.46
68842;SHT35;55849;48.482;2.332;2023-11-21T07:51:12;13.26;79.61
68842;SHT35;55849;48.482;2.332;2023-11-21T07:54:15;13.27;79.78
68842;SHT35;55849;48.482;2.332;2023-11-21T07:57:17;13.29;79.76
68842;SHT35;55849;48.482;2.332;2023-11-21T08:00:19;13.30;79.72
68842;SHT35;55849;48.482;2.332;2023-11-21T08:03:21;13.29;79.84
68842;SHT35;55849;48.482;2.332;2023-11-21T08:06:23;13.30;79.70
68842;SHT35;55849;48.482;2.332;2023-11-21T08:09:27;13.29;79.76
68842;SHT35;55849;48.482;2.332;2023-11-21T08:12:29;13.32;79.73
68842;SHT35;55849;48.482;2.332;2023-11-21T08:15:30;13.33;79.74
68842;SHT35;55849;48.482;2.332;2023-11-21T08:18:33;13.36;79.75
68842;SHT35;55849;48.482;2.332;2023-11-21T08:21:35;13.36;79.90
68842;SHT35;55849;48.482;2.332;2023-11-21T08:24:39;13.37;79.97
68842;SHT35;55849;48.482;2.332;2023-11-21T08:27:40;13.37;79.99
68842;SHT35;55849;48.482;2.332;2023-11-21T08:30:42;13.40;80.14
68842;SHT35;55849;48.482;2.332;2023-11-21T08:33:44;13.42;79.94
68842;SHT35;55849;48.482;2.332;2023-11-21T08:36:45;13.43;79.98
68842;SHT35;55849;48.482;2.332;2023-11-21T08:39:48;13.44;80.22
68842;SHT35;55849;48.482;2.332;2023-11-21T08:42:50;13.46;80.15
68842;SHT35;55849;48.482;2.332;2023-11-21T08:45:52;13.44;80.11
68842;SHT35;55849;48.482;2.332;2023-11-21T08:48:54;13.47;80.18
68842;SHT35;55849;48.482;2.332;2023-11-21T08:51:56;13.47;80.29
68842;SHT35;55849;48.482;2.332;2023-11-21T08:55:00;13.50;80.34
68842;SHT35;55849;48.482;2.332;2023-11-21T08:58:07;13.50;80.18
68842;SHT35;55849;48.482;2.332;2023-11-21T09:01:09;13.53;80.27
68842;SHT35;55849;48.482;2.332;2023-11-21T09:04:12;13.53;80.30
68842;SHT35;55849;48.482;2.332;2023-11-21T09:07:14;13.55;80.35
68842;SHT35;55849;48.482;2.332;2023-11-21T09:10:17;13.55;80.34
68842;SHT35;55849;48.482;2.332;2023-11-21T09:13:18;13.58;80.36
68842;SHT35;55849;48.482;2.332;2023-11-21T09:16:20;13.61;80.35
68842;SHT35;55849;48.482;2.332;2023-11-21T09:19:21;13.61;80.27
68842;SHT35;55849;48.482;2.332;2023-11-21T09:22:23;13.64;80.38
68842;SHT35;55849;48.482;2.332;2023-11-21T09:25:27;13.64;80.33
68842;SHT35;55849;48.482;2.332;2023-11-21T09:28:29;13.67;80.41
68842;SHT35;55849;48.482;2.332;2023-11-21T09:31:30;13.67;80.47
68842;SHT35;55849;48.482;2.332;2023-11-21T09:34:33;13.70;80.33
68842;SHT35;55849;48.482;2.332;2023-11-21T09:37:38;13.71;80.34
68842;SHT35;55849;48.482;2.332;2023-11-21T09:40:41;13.75;80.39
68842;SHT35;55849;48.482;2.332;2023-11-21T09:43:45;13.74;80.41
68842;SHT35;55849;48.482;2.332;2023-11-21T09:46:48;13.77;80.31
68842;SHT35;55849;48.482;2.332;2023-11-21T09:49:52;13.75;80.36
68842;SHT35;55849;48.482;2.332;2023-11-21T09:52:57;13.78;80.35
68842;SHT35;55849;48.482;2.332;2023-11-21T09:56:02;13.81;80.37
68842;SHT35;55849;48.482;2.332;2023-11-21T09:59:05;13.83;80.34
68842;SHT35;55849;48.482;2.332;2023-11-21T10:02:10;13.85;80.44
68842;SHT35;55849;48.482;2.332;2023-11-21T10:05:13;13.86;80.54
68842;SHT35;55849;48.482;2.332;2023-11-21T10:08:15;13.88;80.35
68842;SHT35;55849;48.482;2.332;2023-11-21T10:11:19;13.90;80.71
68842;SHT35;55849;48.482;2.332;2023-11-21T10:14:24;13.94;80.67
68842;SHT35;55849;48.482;2.332;2023-11-21T10:17:31;13.95;80.83
68842;SHT35;55849;48.482;2.332;2023-11-21T10:20:37;13.99;80.84
68842;SHT35;55849;48.482;2.332;2023-11-21T10:23:39;14.01;80.81
68842;SHT35;55849;48.482;2.332;2023-11-21T10:26:42;14.02;80.84
68842;SHT35;55849;48.482;2.332;2023-11-21T10:29:44;14.06;80.61
68842;SHT35;55849;48.482;2.332;2023-11-21T10:32:45;14.10;80.52
68842;SHT35;55849;48.482;2.332;2023-11-21T10:35:48;14.10;80.92
68842;SHT35;55849;48.482;2.332;2023-11-21T10:38:51;14.14;80.64
68842;SHT35;55849;48.482;2.332;2023-11-21T10:41:55;14.20;80.80
68842;SHT35;55849;48.482;2.332;2023-11-21T10:44:56;14.23;81.18
68842;SHT35;55849;48.482;2.332;2023-11-21T10:47:58;14.24;80.83
68842;SHT35;55849;48.482;2.332;2023-11-21T10:50:59;14.31;81.00
68842;SHT35;55849;48.482;2.332;2023-11-21T10:54:07;14.33;80.92
68842;SHT35;55849;48.482;2.332;2023-11-21T10:57:10;14.34;80.72
68842;SHT35;55849;48.482;2.332;2023-11-21T11:00:16;14.37;80.27
68842;SHT35;55849;48.482;2.332;2023-11-21T11:03:20;14.41;80.46
68842;SHT35;55849;48.482;2.332;2023-11-21T11:06:24;14.42;80.25
68842;SHT35;55849;48.482;2.332;2023-11-21T11:09:27;14.45;80.27
68842;SHT35;55849;48.482;2.332;2023-11-21T11:12:30;14.45;80.04
68842;SHT35;55849;48.482;2.332;2023-11-21T11:15:33;14.45;80.04
68842;SHT35;55849;48.482;2.332;2023-11-21T11:18:35;14.44;80.12
68842;SHT35;55849;48.482;2.332;2023-11-21T11:21:45;14.44;80.24
68842;SHT35;55849;48.482;2.332;2023-11-21T11:25:03;14.42;80.28
68842;SHT35;55849;48.482;2.332;2023-11-21T11:28:21;14.44;80.26
68842;SHT35;55849;48.482;2.332;2023-11-21T11:31:28;14.44;80.25
68842;SHT35;55849;48.482;2.332;2023-11-21T11:34:36;14.45;80.41
68842;SHT35;55849;48.482;2.332;2023-11-21T11:37:40;14.48;80.27
68842;SHT35;55849;48.482;2.332;2023-11-21T11:40:45;14.48;80.41
68842;SHT35;55849;48.482;2.332;2023-11-21T11:43:48;14.51;80.56
68842;SHT35;55849;48.482;2.332;2023-11-21T11:46:52;14.52;80.39
68842;SHT35;55849;48.482;2.332;2023-11-21T11:49:58;14.52;80.36
68842;SHT35;55849;48.482;2.332;2023-11-21T11:53:15;14.52;80.41
68842;SHT35;55849;48.482;2.332;2023-11-21T11:56:26;14.54;80.23
68842;SHT35;55849;48.482;2.332;2023-11-21T12:00:06;14.57;80.25
68842;SHT35;55849;48.482;2.332;2023-11-21T12:03:10;14.55;80.29
68842;SHT35;55849;48.482;2.332;2023-11-21T12:06:11;14.58;80.34
68842;SHT35;55849;48.482;2.332;2023-11-21T12:09:17;14.58;80.26
68842;SHT35;55849;48.482;2.332;2023-11-21T12:12:21;14.61;80.80
68842;SHT35;55849;48.482;2.332;2023-11-21T12:15:25;14.61;80.73
68842;SHT35;55849;48.482;2.332;2023-11-21T12:18:29;14.68;80.58
68842;SHT35;55849;48.482;2.332;2023-11-21T12:21:31;14.69;80.70
68842;SHT35;55849;48.482;2.332;2023-11-21T12:24:34;14.76;80.56
68842;SHT35;55849;48.482;2.332;2023-11-21T12:27:35;14.81;80.87
68842;SHT35;55849;48.482;2.332;2023-11-21T12:30:39;14.85;80.93
68842;SHT35;55849;48.482;2.332;2023-11-21T12:33:41;14.89;80.75
68842;SHT35;55849;48.482;2.332;2023-11-21T12:36:43;14.88;80.59
68842;SHT35;55849;48.482;2.332;2023-11-21T12:39:45;14.89;80.16
68842;SHT35;55849;48.482;2.332;2023-11-21T12:42:48;14.92;80.39
68842;SHT35;55849;48.482;2.332;2023-11-21T12:45:51;14.93;80.17
68842;SHT35;55849;48.482;2.332;2023-11-21T12:49:05;14.92;80.31
68842;SHT35;55849;48.482;2.332;2023-11-21T12:52:07;14.92;80.26
68842;SHT35;55849;48.482;2.332;2023-11-21T12:55:08;14.92;80.17
68842;SHT35;55849;48.482;2.332;2023-11-21T12:58:10;14.90;80.07
68842;SHT35;55849;48.482;2.332;2023-11-21T13:01:14;14.92;80.02
68842;SHT35;55849;48.482;2.332;2023-11-21T13:04:19;14.90;80.03
68842;SHT35;55849;48.482;2.332;2023-11-21T13:07:20;14.92;80.03
68842;SHT35;55849;48.482;2.332;2023-11-21T13:10:24;14.90;80.09
68842;SHT35;55849;48.482;2.332;2023-11-21T13:13:29;14.90;80.04
68842;SHT35;55849;48.482;2.332;2023-11-21T13:16:33;14.89;79.87
68842;SHT35;55849;48.482;2.332;2023-11-21T13:19:34;14.88;79.90
68842;SHT35;55849;48.482;2.332;2023-11-21T13:22:36;14.88;79.97
68842;SHT35;55849;48.482;2.332;2023-11-21T13:25:39;14.88;80.46
68842;SHT35;55849;48.482;2.332;2023-11-21T13:28:41;14.90;80.38
68842;SHT35;55849;48.482;2.332;2023-11-21T13:31:47;14.98;80.44
68842;SHT35;55849;48.482;2.332;2023-11-21T13:34:51;14.98;80.71
68842;SHT35;55849;48.482;2.332;2023-11-21T13:37:54;15.04;80.47
68842;SHT35;55849;48.482;2.332;2023-11-21T13:40:56;15.06;80.35
68842;SHT35;55849;48.482;2.332;2023-11-21T15:55:15;15.02;79.90
68842;SHT35;55849;48.482;2.332;2023-11-21T15:58:17;15.00;79.95
68842;SHT35;55849;48.482;2.332;2023-11-21T16:01:19;15.00;79.88
68842;SHT35;55849;48.482;2.332;2023-11-21T16:04:21;14.98;79.81
68842;SHT35;55849;48.482;2.332;2023-11-21T16:07:23;14.96;79.97
68842;SHT35;55849;48.482;2.332;2023-11-21T16:10:27;14.96;79.70
68842;SHT35;55849;48.482;2.332;2023-11-21T16:13:28;14.96;79.85
68842;SHT35;55849;48.482;2.332;2023-11-21T16:16:30;14.96;80.03
68842;SHT35;55849;48.482;2.332;2023-11-21T16:19:32;14.95;79.87
68842;SHT35;55849;48.482;2.332;2023-11-21T16:22:33;14.92;80.00
68842;SHT35;55849;48.482;2.332;2023-11-21T16:25:36;14.95;79.98
68842;SHT35;55849;48.482;2.332;2023-11-21T16:28:38;14.92;80.09
68842;SHT35;55849;48.482;2.332;2023-11-21T16:31:41;14.93;80.00
68842;SHT35;55849;48.482;2.332;2023-11-21T16:34:43;14.90;80.06
68842;SHT35;55849;48.482;2.332;2023-11-21T16:37:45;14.92;80.20
68842;SHT35;55849;48.482;2.332;2023-11-21T16:40:49;14.89;80.15
68842;SHT35;55849;48.482;2.332;2023-11-21T16:43:51;14.90;80.10
68842;SHT35;55849;48.482;2.332;2023-11-21T16:46:52;14.89;80.15
68842;SHT35;55849;48.482;2.332;2023-11-21T16:49:56;14.86;79.95
68842;SHT35;55849;48.482;2.332;2023-11-21T16:52:58;14.86;79.97
68842;SHT35;55849;48.482;2.332;2023-11-21T16:56:01;14.86;80.04
68842;SHT35;55849;48.482;2.332;2023-11-21T16:59:03;14.86;80.14
68842;SHT35;55849;48.482;2.332;2023-11-21T17:02:05;14.82;80.05
68842;SHT35;55849;48.482;2.332;2023-11-21T17:05:07;14.83;80.15
68842;SHT35;55849;48.482;2.332;2023-11-21T17:08:08;14.82;80.37
68842;SHT35;55849;48.482;2.332;2023-11-21T17:11:12;14.83;80.41
68842;SHT35;55849;48.482;2.332;2023-11-21T17:14:14;14.82;80.13
68842;SHT35;55849;48.482;2.332;2023-11-21T17:17:15;14.82;80.27
68842;SHT35;55849;48.482;2.332;2023-11-21T17:20:17;14.82;79.94
68842;SHT35;55849;48.482;2.332;2023-11-21T17:23:19;14.78;80.06
68842;SHT35;55849;48.482;2.332;2023-11-21T17:26:22;14.78;79.97
68842;SHT35;55849;48.482;2.332;2023-11-21T17:29:23;14.76;79.98
68842;SHT35;55849;48.482;2.332;2023-11-21T17:32:26;14.76;80.53
68842;SHT35;55849;48.482;2.332;2023-11-21T17:35:29;14.75;80.50
68842;SHT35;55849;48.482;2.332;2023-11-21T17:38:31;14.74;80.11
68842;SHT35;55849;48.482;2.332;2023-11-21T17:41:34;14.74;79.90
68842;SHT35;55849;48.482;2.332;2023-11-21T17:44:37;14.74;80.46
68842;SHT35;55849;48.482;2.332;2023-11-21T17:47:39;14.71;80.56
68842;SHT35;55849;48.482;2.332;2023-11-21T17:50:41;14.71;80.40
68842;SHT35;55849;48.482;2.332;2023-11-21T17:53:43;14.69;80.47
68842;SHT35;55849;48.482;2.332;2023-11-21T17:56:47;14.69;80.39
68842;SHT35;55849;48.482;2.332;2023-11-21T17:59:49;14.67;79.41
68842;SHT35;55849;48.482;2.332;2023-11-21T18:02:51;14.65;79.72
68842;SHT35;55849;48.482;2.332;2023-11-21T18:05:53;14.63;80.25
68842;SHT35;55849;48.482;2.332;2023-11-21T18:08:55;14.60;80.04
68842;SHT35;55849;48.482;2.332;2023-11-21T18:11:59;14.58;80.21
68842;SHT35;55849;48.482;2.332;2023-11-21T18:15:02;14.52;79.91
68842;SHT35;55849;48.482;2.332;2023-11-21T18:18:05;14.52;79.75
68842;SHT35;55849;48.482;2.332;2023-11-21T18:21:06;14.47;80.33
68842;SHT35;55849;48.482;2.332;2023-11-21T18:24:08;14.47;79.78
68842;SHT35;55849;48.482;2.332;2023-11-21T18:27:11;14.44;79.91
68842;SHT35;55849;48.482;2.332;2023-11-21T18:30:13;14.42;79.77
68842;SHT35;55849;48.482;2.332;2023-11-21T18:33:15;14.40;80.38
68842;SHT35;55849;48.482;2.332;2023-11-21T18:36:18;14.40;80.61
68842;SHT35;55849;48.482;2.332;2023-11-21T18:39:20;14.40;80.49
68842;SHT35;55849;48.482;2.332;2023-11-21T18:42:23;14.40;80.79
68842;SHT35;55849;48.482;2.332;2023-11-21T18:45:25;14.37;80.58
68842;SHT35;55849;48.482;2.332;2023-11-21T18:48:26;14.37;79.89
68842;SHT35;55849;48.482;2.332;2023-11-21T18:51:28;14.36;80.33
68842;SHT35;55849;48.482;2.332;2023-11-21T18:54:29;14.37;80.52
68842;SHT35;55849;48.482;2.332;2023-11-21T18:57:32;14.38;80.70
68842;SHT35;55849;48.482;2.332;2023-11-21T19:00:34;14.37;80.57
68842;SHT35;55849;48.482;2.332;2023-11-21T19:03:36;14.36;80.92
68842;SHT35;55849;48.482;2.332;2023-11-21T19:06:38;14.37;80.80
68842;SHT35;55849;48.482;2.332;2023-11-21T19:09:40;14.38;80.51
68842;SHT35;55849;48.482;2.332;2023-11-21T19:12:42;14.38;80.82
68842;SHT35;55849;48.482;2.332;2023-11-21T19:15:44;14.37;80.77
68842;SHT35;55849;48.482;2.332;2023-11-21T19:18:45;14.36;80.78
68842;SHT35;55849;48.482;2.332;2023-11-21T19:21:49;14.38;80.87
68842;SHT35;55849;48.482;2.332;2023-11-21T19:24:50;14.36;80.46
68842;SHT35;55849;48.482;2.332;2023-11-21T19:27:54;14.36;80.80
68842;SHT35;55849;48.482;2.332;2023-11-21T19:30:57;14.34;80.26
68842;SHT35;55849;48.482;2.332;2023-11-21T19:33:59;14.33;80.62
68842;SHT35;55849;48.482;2.332;2023-11-21T19:37:01;14.31;80.95
68842;SHT35;55849;48.482;2.332;2023-11-21T19:40:04;14.33;80.88
68842;SHT35;55849;48.482;2.332;2023-11-21T19:43:08;14.31;81.19
68842;SHT35;55849;48.482;2.332;2023-11-21T19:46:09;14.33;81.13
68842;SHT35;55849;48.482;2.332;2023-11-21T19:49:11;14.31;80.87
68842;SHT35;55849;48.482;2.332;2023-11-21T19:52:12;14.31;80.90
68842;SHT35;55849;48.482;2.332;2023-11-21T19:55:14;14.30;80.81
68842;SHT35;55849;48.482;2.332;2023-11-21T19:58:17;14.30;81.10
68842;SHT35;55849;48.482;2.332;2023-11-21T20:01:19;14.31;81.19
68842;SHT35;55849;48.482;2.332;2023-11-21T20:04:21;14.30;80.97
68842;SHT35;55849;48.482;2.332;2023-11-21T20:07:23;14.31;80.82
68842;SHT35;55849;48.482;2.332;2023-11-21T20:10:26;14.29;80.90
68842;SHT35;55849;48.482;2.332;2023-11-21T20:13:29;14.30;80.80
68842;SHT35;55849;48.482;2.332;2023-11-21T20:16:31;14.29;80.82
68842;SHT35;55849;48.482;2.332;2023-11-21T20:19:32;14.29;81.19
68842;SHT35;55849;48.482;2.332;2023-11-21T20:22:34;14.27;80.97
68842;SHT35;55849;48.482;2.332;2023-11-21T20:25:36;14.26;80.84
68842;SHT35;55849;48.482;2.332;2023-11-21T20:28:41;14.24;80.92
68842;SHT35;55849;48.482;2.332;2023-11-21T20:31:43;14.26;80.98
68842;SHT35;55849;48.482;2.332;2023-11-21T20:34:45;14.26;81.04
68842;SHT35;55849;48.482;2.332;2023-11-21T20:37:47;14.27;81.05
68842;SHT35;55849;48.482;2.332;2023-11-21T20:40:48;14.27;81.25
68842;SHT35;55849;48.482;2.332;2023-11-21T20:43:51;14.27;81.01
68842;SHT35;55849;48.482;2.332;2023-11-21T20:46:53;14.24;81.12
68842;SHT35;55849;48.482;2.332;2023-11-21T20:49:54;14.26;81.13
68842;SHT35;55849;48.482;2.332;2023-11-21T20:52:58;14.27;81.07
68842;SHT35;55849;48.482;2.332;2023-11-21T20:56:00;14.24;80.71
68842;SHT35;55849;48.482;2.332;2023-11-21T20:59:04;14.26;81.20
68842;SHT35;55849;48.482;2.332;2023-11-21T21:02:07;14.26;81.08
68842;SHT35;55849;48.482;2.332;2023-11-21T21:05:08;14.26;80.88
68842;SHT35;55849;48.482;2.332;2023-11-21T21:08:10;14.23;80.88
68842;SHT35;55849;48.482;2.332;2023-11-21T21:11:16;14.27;80.93
68842;SHT35;55849;48.482;2.332;2023-11-21T21:14:19;14.26;80.79
68842;SHT35;55849;48.482;2.332;2023-11-21T21:17:24;14.23;80.73
68842;SHT35;55849;48.482;2.332;2023-11-21T21:20:26;14.24;80.85
68842;SHT35;55849;48.482;2.332;2023-11-21T21:23:27;14.23;80.85
68842;SHT35;55849;48.482;2.332;2023-11-21T21:26:29;14.24;80.52
68842;SHT35;55849;48.482;2.332;2023-11-21T21:29:33;14.26;80.37
68842;SHT35;55849;48.482;2.332;2023-11-21T21:32:34;14.23;80.72
68842;SHT35;55849;48.482;2.332;2023-11-21T21:35:36;14.20;80.64
68842;SHT35;55849;48.482;2.332;2023-11-21T21:38:38;14.20;79.80
68842;SHT35;55849;48.482;2.332;2023-11-21T21:41:40;14.16;80.40
68842;SHT35;55849;48.482;2.332;2023-11-21T21:44:43;14.16;80.39
68842;SHT35;55849;48.482;2.332;2023-11-21T21:47:46;14.14;79.89
68842;SHT35;55849;48.482;2.332;2023-11-21T21:50:48;14.10;80.21
68842;SHT35;55849;48.482;2.332;2023-11-21T21:53:49;14.06;80.22
68842;SHT35;55849;48.482;2.332;2023-11-21T21:56:51;14.05;80.31
68842;SHT35;55849;48.482;2.332;2023-11-21T21:59:54;14.05;80.18
68842;SHT35;55849;48.482;2.332;2023-11-21T22:02:55;13.99;80.13
68842;SHT35;55849;48.482;2.332;2023-11-21T22:05:57;13.99;79.56
68842;SHT35;55849;48.482;2.332;2023-11-21T22:08:59;13.95;80.05
68842;SHT35;55849;48.482;2.332;2023-11-21T22:12:00;13.94;80.37
68842;SHT35;55849;48.482;2.332;2023-11-21T22:15:04;13.88;79.89
68842;SHT35;55849;48.482;2.332;2023-11-21T22:18:06;13.88;80.32
68842;SHT35;55849;48.482;2.332;2023-11-21T22:21:12;13.83;80.03
68842;SHT35;55849;48.482;2.332;2023-11-21T22:24:14;13.83;80.20
68842;SHT35;55849;48.482;2.332;2023-11-21T22:27:16;13.81;80.10
68842;SHT35;55849;48.482;2.332;2023-11-21T22:30:19;13.79;80.20
68842;SHT35;55849;48.482;2.332;2023-11-21T22:33:24;13.79;80.13
68842;SHT35;55849;48.482;2.332;2023-11-21T22:36:25;13.72;79.90
68842;SHT35;55849;48.482;2.332;2023-11-21T22:39:28;13.72;79.43
68842;SHT35;55849;48.482;2.332;2023-11-21T22:42:30;13.68;79.59
68842;SHT35;55849;48.482;2.332;2023-11-21T22:45:32;13.68;80.01
68842;SHT35;55849;48.482;2.332;2023-11-21T22:48:34;13.64;79.63
68842;SHT35;55849;48.482;2.332;2023-11-21T22:51:36;13.62;79.58
68842;SHT35;55849;48.482;2.332;2023-11-21T22:54:37;13.60;79.91
68842;SHT35;55849;48.482;2.332;2023-11-21T22:57:39;13.55;79.59
68842;SHT35;55849;48.482;2.332;2023-11-21T23:00:42;13.55;80.13
68842;SHT35;55849;48.482;2.332;2023-11-21T23:03:45;13.55;80.20
68842;SHT35;55849;48.482;2.332;2023-11-21T23:06:48;13.53;80.36
68842;SHT35;55849;48.482;2.332;2023-11-21T23:09:49;13.51;80.62
68842;SHT35;55849;48.482;2.332;2023-11-21T23:12:51;13.51;80.72
68842;SHT35;55849;48.482;2.332;2023-11-21T23:15:54;13.51;80.13
68842;SHT35;55849;48.482;2.332;2023-11-21T23:18:56;13.48;79.66
68842;SHT35;55849;48.482;2.332;2023-11-21T23:21:57;13.46;80.17
68842;SHT35;55849;48.482;2.332;2023-11-21T23:24:59;13.44;80.74
68842;SHT35;55849;48.482;2.332;2023-11-21T23:28:00;13.43;80.50
68842;SHT35;55849;48.482;2.332;2023-11-21T23:31:04;13.40;79.83
68842;SHT35;55849;48.482;2.332;2023-11-21T23:34:06;13.37;80.21
68842;SHT35;55849;48.482;2.332;2023-11-21T23:37:09;13.36;80.52
68842;SHT35;55849;48.482;2.332;2023-11-21T23:40:12;13.36;80.40
68842;SHT35;55849;48.482;2.332;2023-11-21T23:43:14;13.35;80.32
68842;SHT35;55849;48.482;2.332;2023-11-21T23:46:17;13.35;80.34
68842;SHT35;55849;48.482;2.332;2023-11-21T23:49:19;13.33;80.24
68842;SHT35;55849;48.482;2.332;2023-11-21T23:52:21;13.30;80.60
68842;SHT35;55849;48.482;2.332;2023-11-21T23:55:23;13.30;79.82
68842;SHT35;55849;48.482;2.332;2023-11-21T23:58:24;13.24;79.86
